Celtic Explorer — EIGB — position and weather

sailwx.info

Track history (hours):
 
Tides and Currents Weather Stations Pressure Air Temp Water Temp Dewpoint Dewpoint Depression Visibility Wind Speed Wind Dir Waves Ship Positions

Oceanographic research ship Celtic Explorer (Ireland)

Detailed information on ship capabilities available from University of Delaware's Ocean Information Center.

Last reported at 2017-Oct-19 02:00 UTC. Time now 2017-Oct-19 02:11 UTC.
Position N 51°42' W 007°51'.

Type: . MMSI: 250487000.

Date/timePositionNaut miles runAvg speedWind from/ knotsBaromVisibWave heightAir tempDewpointWater temp
2017-Oct-19 02:00N 51°42' W 007°51'4 8.1
2017-Oct-19 01:30N 51°46' W 007°51'3 5.5
2017-Oct-19 01:00N 51°49' W 007°53'3 6.3
2017-Oct-19 00:30N 51°47' W 007°57'5 9.6
2017-Oct-19 00:00N 51°45' W 008°04'510.1
2017-Oct-18 23:30N 51°40' W 008°05'510.2
2017-Oct-18 23:00N 51°35' W 008°04'510.1
2017-Oct-18 22:30N 51°30' W 008°05'5 9.9
2017-Oct-18 22:00N 51°25' W 008°05'5 9.8
2017-Oct-18 21:30N 51°20' W 008°05'5 9.7
2017-Oct-18 21:00N 51°15' W 008°05'5 9.8
2017-Oct-18 20:30N 51°11' W 008°05'5 9.8
2017-Oct-18 20:00N 51°06' W 008°05'6 9.6
2017-Oct-18 19:24N 50°60' W 008°05'16 1.8
2017-Oct-18 10:14N 51°14' W 008°17'2 8.3
2017-Oct-18 09:59N 51°16' W 008°17'3 5.8
2017-Oct-18 09:30N 51°19' W 008°17'2 4.8
2017-Oct-18 09:00N 51°21' W 008°17'5 9.2
2017-Oct-18 08:30N 51°26' W 008°17'0 0.2
2017-Oct-18 08:00N 51°26' W 008°18'2 4.2
2017-Oct-18 07:30N 51°24' W 008°17'2 4.2
2017-Oct-18 07:00N 51°26' W 008°17'5 9.3
2017-Oct-18 06:30N 51°31' W 008°17'5 9.5
2017-Oct-18 06:00N 51°35' W 008°18'5 9.4
2017-Oct-18 05:30N 51°40' W 008°17'2 4.7
2017-Oct-18 05:00N 51°42' W 008°18'5 9.9
2017-Oct-18 04:30N 51°40' W 008°25'4 8.6
2017-Oct-18 04:00N 51°37' W 008°30'510.2
2017-Oct-18 03:30N 51°32' W 008°30'510.3
2017-Oct-18 03:00N 51°27' W 008°30'510.4
2017-Oct-18 02:30N 51°22' W 008°30'510.2
2017-Oct-18 02:00N 51°17' W 008°30'610.2
2017-Oct-18 01:23N 51°10' W 008°30'34 3.9
2017-Oct-17 16:36N 51°06' W 009°24'3 9.7
2017-Oct-17 16:18N 51°07' W 009°27'4 9.7
2017-Oct-17 15:55N 51°10' W 009°31'4 9.8
2017-Oct-17 15:30N 51°13' W 009°36'5 9.9
2017-Oct-17 15:00N 51°17' W 009°41'510.3
2017-Oct-17 14:30N 51°20' W 009°47'510.1
2017-Oct-17 14:00N 51°25' W 009°51'5 9.5
2017-Oct-17 13:31N 51°29' W 009°53'5 9.1
2017-Oct-17 13:00N 51°32' W 009°46'5 9.3
2017-Oct-17 12:30N 51°34' W 009°40'0 0.1
2017-Oct-17 12:00N 51°34' W 009°40'0 0.0
2017-Oct-17 11:30N 51°34' W 009°40'0 0.0
2017-Oct-17 11:00N 51°34' W 009°40'0 0.1
2017-Oct-17 10:30N 51°34' W 009°40'0 0.0
2017-Oct-17 10:00N 51°34' W 009°40'0 0.0
2017-Oct-17 09:30N 51°34' W 009°40'0 0.0
2017-Oct-17 09:00N 51°34' W 009°40'0 0.0
2017-Oct-17 08:30N 51°34' W 009°40'0 0.0
2017-Oct-17 08:00N 51°34' W 009°40'0 0.0
2017-Oct-17 07:30N 51°34' W 009°40'0 0.0
2017-Oct-17 07:00N 51°34' W 009°40'0 0.1
2017-Oct-17 06:30N 51°34' W 009°40'3 6.3
2017-Oct-17 06:00N 51°33' W 009°45'510.0
2017-Oct-17 05:30N 51°31' W 009°52'4 7.1
2017-Oct-17 05:00N 51°34' W 009°51'5 9.2
2017-Oct-17 04:30N 51°38' W 009°46'2 4.6
2017-Oct-17 04:00N 51°39' W 009°49'0 0.1
2017-Oct-17 03:30N 51°39' W 009°49'0 0.0
2017-Oct-17 03:00N 51°39' W 009°49'0 0.0
2017-Oct-17 02:30N 51°39' W 009°49'0 0.0
2017-Oct-17 02:00N 51°39' W 009°49'0 0.0
2017-Oct-17 01:30N 51°39' W 009°49'0 0.0
2017-Oct-17 01:00N 51°39' W 009°49'0 0.0
2017-Oct-17 00:30N 51°39' W 009°49'0 0.0
2017-Oct-17 00:00N 51°39' W 009°49'0 0.0
2017-Oct-16 23:30N 51°39' W 009°49'0 0.0
2017-Oct-16 23:00N 51°39' W 009°49'0 0.0
2017-Oct-16 22:30N 51°39' W 009°49'0 0.0
2017-Oct-16 22:00N 51°39' W 009°49'0 0.0
2017-Oct-16 21:30N 51°39' W 009°49'0 0.0
2017-Oct-16 21:00N 51°39' W 009°49'0 0.0
2017-Oct-16 20:30N 51°39' W 009°49'0 0.0
2017-Oct-16 20:00N 51°39' W 009°49'0 0.0
2017-Oct-16 19:30N 51°39' W 009°49'0 0.0
2017-Oct-16 19:00N 51°39' W 009°49'0 0.0
2017-Oct-16 18:30N 51°39' W 009°49'0 0.1
2017-Oct-16 18:00N 51°39' W 009°49'0 0.0
2017-Oct-16 12:26N 51°39' W 009°49'0 0.0
2017-Oct-16 11:56N 51°39' W 009°49'0 0.0
2017-Oct-16 11:26N 51°39' W 009°49'0 0.0
2017-Oct-16 10:56N 51°39' W 009°49'0 0.0
2017-Oct-16 09:39N 51°39' W 009°49'0 0.1
2017-Oct-16 09:25N 51°39' W 009°49'0 0.0
2017-Oct-16 09:00N 51°39' W 009°49'0 0.0
2017-Oct-16 08:30N 51°39' W 009°49'0 0.0
2017-Oct-16 08:00N 51°39' W 009°49'0 0.0
2017-Oct-16 07:30N 51°39' W 009°49'2 3.3
2017-Oct-16 07:00N 51°39' W 009°46'2 3.9
2017-Oct-16 06:30N 51°37' W 009°47'1 3.0
2017-Oct-16 06:00N 51°36' W 009°49'2 3.1
2017-Oct-16 05:30N 51°36' W 009°52'2 3.8
2017-Oct-16 05:00N 51°35' W 009°54'2 3.6
2017-Oct-16 04:31N 51°34' W 009°57'2 4.2
2017-Oct-16 04:00N 51°34' W 010°00'2 4.2
2017-Oct-16 03:31N 51°34' W 010°04'4 7.4
2017-Oct-16 03:00N 51°33' W 010°10'5 9.7
2017-Oct-16 02:30N 51°33' W 010°17'5 9.5
2017-Oct-16 02:00N 51°36' W 010°24'107 2.5
2017-Oct-14 07:18N 53°13' W 009°11'1410.0
2017-Oct-14 05:57N 53°12' W 009°34'510.1
2017-Oct-14 05:29N 53°12' W 009°41'5 9.9
2017-Oct-14 05:00N 53°12' W 009°49'5 9.7
2017-Oct-14 04:30N 53°13' W 009°57'5 9.2
2017-Oct-14 04:00N 53°14' W 010°04'5 9.2
2017-Oct-14 03:30N 53°18' W 010°10'4 8.7
2017-Oct-14 03:00N 53°21' W 010°15'4 8.2
2017-Oct-14 02:30N 53°24' W 010°19'4 8.2
2017-Oct-14 02:00N 53°28' W 010°22'4 8.0
2017-Oct-14 01:30N 53°31' W 010°25'4 8.0
2017-Oct-14 01:00N 53°35' W 010°27'4 7.4
2017-Oct-14 00:30N 53°39' W 010°27'4 7.4
2017-Oct-14 00:00N 53°42' W 010°27'4 8.0
2017-Oct-13 23:29N 53°46' W 010°26'4 7.7
2017-Oct-13 23:00N 53°50' W 010°25'4 8.2
2017-Oct-13 22:30N 53°54' W 010°25'4 8.4
2017-Oct-13 21:59N 53°59' W 010°25'4 8.0
2017-Oct-13 21:30N 54°03' W 010°25'5 7.8
2017-Oct-13 20:55N 54°07' W 010°24'4 7.0
2017-Oct-13 20:21N 54°10' W 010°21'3 7.1
2017-Oct-13 19:56N 54°13' W 010°18'3 7.4
2017-Oct-13 19:30N 54°16' W 010°15'4 7.2
2017-Oct-13 18:56N 54°19' W 010°12'4 7.2
2017-Oct-13 18:26N 54°22' W 010°08'12 7.1
2017-Oct-13 16:42N 54°32' W 009°56'2 7.0
2017-Oct-13 16:21N 54°34' W 009°52'11 5.7
2017-Oct-13 14:25N 54°41' W 009°38'1 3.0
2017-Oct-13 13:59N 54°42' W 009°36'2 3.9
2017-Oct-13 13:21N 54°43' W 009°33'3 7.6
2017-Oct-13 13:00N 54°42' W 009°29'5 9.3
2017-Oct-13 12:27N 54°38' W 009°23'4 9.1
2017-Oct-13 12:00N 54°35' W 009°18'2 2.8
2017-Oct-13 11:27N 54°36' W 009°16'2 3.6
2017-Oct-13 10:58N 54°36' W 009°13'4 8.2
2017-Oct-13 10:28N 54°37' W 009°06'10 4.8
2017-Oct-13 08:21N 54°42' W 008°51'4 9.2
2017-Oct-13 07:53N 54°46' W 008°48'8 4.3
2017-Oct-13 05:56N 54°52' W 008°38'2 4.0
2017-Oct-13 05:25N 54°54' W 008°38'11 6.1
2017-Oct-13 03:38N 55°05' W 008°32'1 6.0
2017-Oct-13 03:29N 55°05' W 008°31'6 6.1
2017-Oct-13 02:28N 55°10' W 008°24'4 6.4
2017-Oct-13 01:49N 55°12' W 008°18'4 6.8
2017-Oct-13 01:17N 55°14' W 008°12'7 7.2
2017-Oct-13 00:18N 55°16' W 008°01'2 7.1
2017-Oct-12 23:59N 55°17' W 007°57'5 7.4
2017-Oct-12 23:16N 55°19' W 007°48'3 7.2
2017-Oct-12 22:53N 55°20' W 007°44'3 7.6
2017-Oct-12 22:26N 55°21' W 007°38'6 7.3
2017-Oct-12 21:39N 55°23' W 007°29'1 7.1
2017-Oct-12 21:30N 55°24' W 007°27'5 7.3
2017-Oct-12 20:53N 55°25' W 007°19'4 8.9
2017-Oct-12 20:28N 55°24' W 007°13'810.2
2017-Oct-12 19:44N 55°23' W 006°60'311.3
2017-Oct-12 19:28N 55°22' W 006°55'5 9.5
2017-Oct-12 18:58N 55°21' W 006°46'511.3
2017-Oct-12 18:30N 55°20' W 006°37'510.9
2017-Oct-12 18:00N 55°19' W 006°28'1 2.1
2017-Oct-12 17:30N 55°18' W 006°28'2 3.5
2017-Oct-12 17:00N 55°17' W 006°31'3 6.4
2017-Oct-12 16:30N 55°16' W 006°36'611.8
2017-Oct-12 16:00N 55°18' W 006°46'611.4
2017-Oct-12 15:28N 55°20' W 006°56'2 2.9
2017-Oct-12 14:57N 55°19' W 006°54'2 3.5
2017-Oct-12 14:30N 55°18' W 006°52'2 4.6
2017-Oct-12 13:59N 55°19' W 006°55'3 6.5
2017-Oct-12 13:29N 55°22' W 006°55'5 9.8
2017-Oct-12 13:00N 55°26' W 006°50'5 9.4
2017-Oct-12 12:30N 55°30' W 006°45'5 9.2
2017-Oct-12 11:59N 55°34' W 006°41'1 2.0
2017-Oct-12 11:31N 55°35' W 006°41'2 3.7
2017-Oct-12 11:00N 55°34' W 006°44'3 6.1
2017-Oct-12 10:30N 55°33' W 006°49'510.6
2017-Oct-12 10:00N 55°31' W 006°58'3 5.1
2017-Oct-12 09:30N 55°31' W 007°03'2 4.0
2017-Oct-12 09:00N 55°32' W 007°05'5 7.2
2017-Oct-12 08:19N 55°32' W 007°14'4 9.5
2017-Oct-12 07:57N 55°31' W 007°20'2 4.0
2017-Oct-12 07:27N 55°30' W 007°23'2 4.0
2017-Oct-12 06:58N 55°30' W 007°27'1 2.4
2017-Oct-12 06:30N 55°30' W 007°25'2 3.7
2017-Oct-12 06:00N 55°30' W 007°28'1 1.4
2017-Oct-12 05:25N 55°30' W 007°29'1 2.1
2017-Oct-12 04:55N 55°30' W 007°28'1 1.1
2017-Oct-12 03:40N 55°29' W 007°30'3 8.1
2017-Oct-12 03:15N 55°28' W 007°35'2 7.7
2017-Oct-12 03:00N 55°27' W 007°38'3 5.1
2017-Oct-12 02:19N 55°25' W 007°43'2 5.1
2017-Oct-12 01:52N 55°24' W 007°46'3 5.2
2017-Oct-12 01:22N 55°22' W 007°50'3 5.4
2017-Oct-12 00:45N 55°20' W 007°55'2 5.7
2017-Oct-12 00:22N 55°19' W 007°58'3 5.5
2017-Oct-11 23:45N 55°17' W 008°03'1 5.3
2017-Oct-11 23:30N 55°16' W 008°05'3 6.1
2017-Oct-11 22:59N 55°15' W 008°09'3 6.3
2017-Oct-11 22:28N 55°13' W 008°15'3 6.0
2017-Oct-11 21:59N 55°12' W 008°19'4 6.1
2017-Oct-11 21:15N 55°11' W 008°27'2 6.0
2017-Oct-11 20:57N 55°10' W 008°30'4 6.0
2017-Oct-11 20:19N 55°09' W 008°36'2 5.8
2017-Oct-11 20:00N 55°09' W 008°39'3 5.7
2017-Oct-11 19:30N 55°08' W 008°44'3 5.9
2017-Oct-11 19:00N 55°07' W 008°49'7 4.4
2017-Oct-11 17:28N 55°06' W 009°00'37 2.1
2017-Oct-10 23:57N 55°12' W 007°56'0 0.0
2017-Oct-10 21:54N 55°12' W 007°56'0 0.0
2017-Oct-10 19:59N 55°12' W 007°56'0 0.0
2017-Oct-10 19:22N 55°12' W 007°56'0 0.0
2017-Oct-10 18:13N 55°12' W 007°56'0 1.9
2017-Oct-10 18:00N 55°12' W 007°55'1 2.1
2017-Oct-10 17:28N 55°13' W 007°56'2 4.3
2017-Oct-10 17:00N 55°15' W 007°57'4 7.5
2017-Oct-10 16:29N 55°17' W 007°51'6 8.6
2017-Oct-10 15:49N 55°18' W 007°41'3 1.8
2017-Oct-10 13:58N 55°20' W 007°37'6 9.4
2017-Oct-10 13:23N 55°25' W 007°41'4 9.5
2017-Oct-10 12:55N 55°29' W 007°44'3 6.1
2017-Oct-10 12:29N 55°31' W 007°46'0 0.6
2017-Oct-10 11:56N 55°31' W 007°45'3 5.4
2017-Oct-10 11:22N 55°29' W 007°48'410.9
2017-Oct-10 10:57N 55°26' W 007°54'511.0
2017-Oct-10 10:30N 55°23' W 008°01'4 8.4
2017-Oct-10 10:00N 55°21' W 008°07'2 3.9
2017-Oct-10 09:30N 55°21' W 008°11'2 3.7
2017-Oct-10 08:59N 55°22' W 008°13'3 6.7
2017-Oct-10 08:29N 55°25' W 008°16'5 9.8
2017-Oct-10 08:00N 55°30' W 008°18'5 9.9
2017-Oct-10 07:27N 55°35' W 008°20'4 3.4
2017-Oct-10 06:23N 55°38' W 008°17'3 2.9
2017-Oct-10 05:21N 55°40' W 008°13'0 0.8
2017-Oct-10 04:55N 55°40' W 008°12'1 1.1
2017-Oct-10 03:41N 55°41' W 008°10'0 1.9
2017-Oct-10 03:28N 55°41' W 008°10'1 2.2
2017-Oct-10 03:00N 55°42' W 008°08'2 3.2
2017-Oct-10 02:23N 55°43' W 008°06'2 3.0
2017-Oct-10 01:46N 55°44' W 008°03'1 3.1
2017-Oct-10 01:27N 55°44' W 008°01'1 3.1
2017-Oct-10 00:59N 55°45' W 007°59'2 3.1
2017-Oct-10 00:24N 55°46' W 007°57'1 2.6
2017-Oct-09 23:55N 55°47' W 007°55'1 2.6
2017-Oct-09 23:25N 55°48' W 007°53'2 2.9
2017-Oct-09 22:54N 55°49' W 007°51'2 3.1
2017-Oct-09 22:22N 55°50' W 007°49'1 2.9
2017-Oct-09 21:54N 55°51' W 007°47'2 3.0
2017-Oct-09 21:18N 55°52' W 007°44'1 3.4
2017-Oct-09 20:56N 55°52' W 007°42'1 3.4
2017-Oct-09 20:30N 55°53' W 007°40'21 3.6
2017-Oct-09 14:43N 55°54' W 007°03'2 3.9
2017-Oct-09 14:18N 55°52' W 007°04'3 4.6
2017-Oct-09 13:38N 55°49' W 007°06'11 6.9
2017-Oct-09 11:59N 55°39' W 007°14'610.7
2017-Oct-09 11:23N 55°39' W 007°25'3 6.6
2017-Oct-09 10:53N 55°39' W 007°31'2 3.8
2017-Oct-09 10:25N 55°39' W 007°34'3 6.5
2017-Oct-09 09:58N 55°41' W 007°38'511.0
2017-Oct-09 09:30N 55°46' W 007°41'6 4.0
2017-Oct-09 08:04N 55°47' W 007°51'210.1
2017-Oct-09 07:53N 55°49' W 007°51'410.1
2017-Oct-09 07:30N 55°53' W 007°51'7 2.4
2017-Oct-09 04:45N 55°58' W 007°43'1 4.6
2017-Oct-09 04:26N 55°56' W 007°42'5 4.7
2017-Oct-09 03:18N 55°52' W 007°36'2 4.8
2017-Oct-09 02:52N 55°50' W 007°35'3 6.3
2017-Oct-09 02:27N 55°48' W 007°33'  
Track history (hours):
 
Tides and Currents Weather Stations Pressure Air Temp Water Temp Dewpoint Dewpoint Depression Visibility Wind Speed Wind Dir Waves Ship Positions

Oceanographic research ship Celtic Explorer (Ireland)

Detailed information on ship capabilities available from University of Delaware's Ocean Information Center.

Last reported at 2017-Oct-19 02:00 UTC. Time now 2017-Oct-19 02:11 UTC.
Position N 51°42' W 007°51'.

Type: . MMSI: 250487000.

Date/timePositionNaut miles runAvg speedWind from/ knotsBaromVisibWave heightAir tempDewpointWater temp
2017-Oct-19 02:00N 51°42' W 007°51'4 8.1
2017-Oct-19 01:30N 51°46' W 007°51'3 5.5
2017-Oct-19 01:00N 51°49' W 007°53'3 6.3
2017-Oct-19 00:30N 51°47' W 007°57'5 9.6
2017-Oct-19 00:00N 51°45' W 008°04'510.1
2017-Oct-18 23:30N 51°40' W 008°05'510.2
2017-Oct-18 23:00N 51°35' W 008°04'510.1
2017-Oct-18 22:30N 51°30' W 008°05'5 9.9
2017-Oct-18 22:00N 51°25' W 008°05'5 9.8
2017-Oct-18 21:30N 51°20' W 008°05'5 9.7
2017-Oct-18 21:00N 51°15' W 008°05'5 9.8
2017-Oct-18 20:30N 51°11' W 008°05'5 9.8
2017-Oct-18 20:00N 51°06' W 008°05'6 9.6
2017-Oct-18 19:24N 50°60' W 008°05'16 1.8
2017-Oct-18 10:14N 51°14' W 008°17'2 8.3
2017-Oct-18 09:59N 51°16' W 008°17'3 5.8
2017-Oct-18 09:30N 51°19' W 008°17'2 4.8
2017-Oct-18 09:00N 51°21' W 008°17'5 9.2
2017-Oct-18 08:30N 51°26' W 008°17'0 0.2
2017-Oct-18 08:00N 51°26' W 008°18'2 4.2
2017-Oct-18 07:30N 51°24' W 008°17'2 4.2
2017-Oct-18 07:00N 51°26' W 008°17'5 9.3
2017-Oct-18 06:30N 51°31' W 008°17'5 9.5
2017-Oct-18 06:00N 51°35' W 008°18'5 9.4
2017-Oct-18 05:30N 51°40' W 008°17'2 4.7
2017-Oct-18 05:00N 51°42' W 008°18'5 9.9
2017-Oct-18 04:30N 51°40' W 008°25'4 8.6
2017-Oct-18 04:00N 51°37' W 008°30'510.2
2017-Oct-18 03:30N 51°32' W 008°30'510.3
2017-Oct-18 03:00N 51°27' W 008°30'510.4
2017-Oct-18 02:30N 51°22' W 008°30'510.2
2017-Oct-18 02:00N 51°17' W 008°30'610.2
2017-Oct-18 01:23N 51°10' W 008°30'34 3.9
2017-Oct-17 16:36N 51°06' W 009°24'3 9.7
2017-Oct-17 16:18N 51°07' W 009°27'4 9.7
2017-Oct-17 15:55N 51°10' W 009°31'4 9.8
2017-Oct-17 15:30N 51°13' W 009°36'5 9.9
2017-Oct-17 15:00N 51°17' W 009°41'510.3
2017-Oct-17 14:30N 51°20' W 009°47'510.1
2017-Oct-17 14:00N 51°25' W 009°51'5 9.5
2017-Oct-17 13:31N 51°29' W 009°53'5 9.1
2017-Oct-17 13:00N 51°32' W 009°46'5 9.3
2017-Oct-17 12:30N 51°34' W 009°40'0 0.1
2017-Oct-17 12:00N 51°34' W 009°40'0 0.0
2017-Oct-17 11:30N 51°34' W 009°40'0 0.0
2017-Oct-17 11:00N 51°34' W 009°40'0 0.1
2017-Oct-17 10:30N 51°34' W 009°40'0 0.0
2017-Oct-17 10:00N 51°34' W 009°40'0 0.0
2017-Oct-17 09:30N 51°34' W 009°40'0 0.0
2017-Oct-17 09:00N 51°34' W 009°40'0 0.0
2017-Oct-17 08:30N 51°34' W 009°40'0 0.0
2017-Oct-17 08:00N 51°34' W 009°40'0 0.0
2017-Oct-17 07:30N 51°34' W 009°40'0 0.0
2017-Oct-17 07:00N 51°34' W 009°40'0 0.1
2017-Oct-17 06:30N 51°34' W 009°40'3 6.3
2017-Oct-17 06:00N 51°33' W 009°45'510.0
2017-Oct-17 05:30N 51°31' W 009°52'4 7.1
2017-Oct-17 05:00N 51°34' W 009°51'5 9.2
2017-Oct-17 04:30N 51°38' W 009°46'2 4.6
2017-Oct-17 04:00N 51°39' W 009°49'0 0.1
2017-Oct-17 03:30N 51°39' W 009°49'0 0.0
2017-Oct-17 03:00N 51°39' W 009°49'0 0.0
2017-Oct-17 02:30N 51°39' W 009°49'0 0.0
2017-Oct-17 02:00N 51°39' W 009°49'0 0.0
2017-Oct-17 01:30N 51°39' W 009°49'0 0.0
2017-Oct-17 01:00N 51°39' W 009°49'0 0.0
2017-Oct-17 00:30N 51°39' W 009°49'0 0.0
2017-Oct-17 00:00N 51°39' W 009°49'0 0.0
2017-Oct-16 23:30N 51°39' W 009°49'0 0.0
2017-Oct-16 23:00N 51°39' W 009°49'0 0.0
2017-Oct-16 22:30N 51°39' W 009°49'0 0.0
2017-Oct-16 22:00N 51°39' W 009°49'0 0.0
2017-Oct-16 21:30N 51°39' W 009°49'0 0.0
2017-Oct-16 21:00N 51°39' W 009°49'0 0.0
2017-Oct-16 20:30N 51°39' W 009°49'0 0.0
2017-Oct-16 20:00N 51°39' W 009°49'0 0.0
2017-Oct-16 19:30N 51°39' W 009°49'0 0.0
2017-Oct-16 19:00N 51°39' W 009°49'0 0.0
2017-Oct-16 18:30N 51°39' W 009°49'0 0.1
2017-Oct-16 18:00N 51°39' W 009°49'0 0.0
2017-Oct-16 12:26N 51°39' W 009°49'0 0.0
2017-Oct-16 11:56N 51°39' W 009°49'0 0.0
2017-Oct-16 11:26N 51°39' W 009°49'0 0.0
2017-Oct-16 10:56N 51°39' W 009°49'0 0.0
2017-Oct-16 09:39N 51°39' W 009°49'0 0.1
2017-Oct-16 09:25N 51°39' W 009°49'0 0.0
2017-Oct-16 09:00N 51°39' W 009°49'0 0.0
2017-Oct-16 08:30N 51°39' W 009°49'0 0.0
2017-Oct-16 08:00N 51°39' W 009°49'0 0.0
2017-Oct-16 07:30N 51°39' W 009°49'2 3.3
2017-Oct-16 07:00N 51°39' W 009°46'2 3.9
2017-Oct-16 06:30N 51°37' W 009°47'1 3.0
2017-Oct-16 06:00N 51°36' W 009°49'2 3.1
2017-Oct-16 05:30N 51°36' W 009°52'2 3.8
2017-Oct-16 05:00N 51°35' W 009°54'2 3.6
2017-Oct-16 04:31N 51°34' W 009°57'2 4.2
2017-Oct-16 04:00N 51°34' W 010°00'2 4.2
2017-Oct-16 03:31N 51°34' W 010°04'4 7.4
2017-Oct-16 03:00N 51°33' W 010°10'5 9.7
2017-Oct-16 02:30N 51°33' W 010°17'5 9.5
2017-Oct-16 02:00N 51°36' W 010°24'107 2.5
2017-Oct-14 07:18N 53°13' W 009°11'1410.0
2017-Oct-14 05:57N 53°12' W 009°34'510.1
2017-Oct-14 05:29N 53°12' W 009°41'5 9.9
2017-Oct-14 05:00N 53°12' W 009°49'5 9.7
2017-Oct-14 04:30N 53°13' W 009°57'5 9.2
2017-Oct-14 04:00N 53°14' W 010°04'5 9.2
2017-Oct-14 03:30N 53°18' W 010°10'4 8.7
2017-Oct-14 03:00N 53°21' W 010°15'4 8.2
2017-Oct-14 02:30N 53°24' W 010°19'4 8.2
2017-Oct-14 02:00N 53°28' W 010°22'4 8.0
2017-Oct-14 01:30N 53°31' W 010°25'4 8.0
2017-Oct-14 01:00N 53°35' W 010°27'4 7.4
2017-Oct-14 00:30N 53°39' W 010°27'4 7.4
2017-Oct-14 00:00N 53°42' W 010°27'4 8.0
2017-Oct-13 23:29N 53°46' W 010°26'4 7.7
2017-Oct-13 23:00N 53°50' W 010°25'4 8.2
2017-Oct-13 22:30N 53°54' W 010°25'4 8.4
2017-Oct-13 21:59N 53°59' W 010°25'4 8.0
2017-Oct-13 21:30N 54°03' W 010°25'5 7.8
2017-Oct-13 20:55N 54°07' W 010°24'4 7.0
2017-Oct-13 20:21N 54°10' W 010°21'3 7.1
2017-Oct-13 19:56N 54°13' W 010°18'3 7.4
2017-Oct-13 19:30N 54°16' W 010°15'4 7.2
2017-Oct-13 18:56N 54°19' W 010°12'4 7.2
2017-Oct-13 18:26N 54°22' W 010°08'12 7.1
2017-Oct-13 16:42N 54°32' W 009°56'2 7.0
2017-Oct-13 16:21N 54°34' W 009°52'11 5.7
2017-Oct-13 14:25N 54°41' W 009°38'1 3.0
2017-Oct-13 13:59N 54°42' W 009°36'2 3.9
2017-Oct-13 13:21N 54°43' W 009°33'3 7.6
2017-Oct-13 13:00N 54°42' W 009°29'5 9.3
2017-Oct-13 12:27N 54°38' W 009°23'4 9.1
2017-Oct-13 12:00N 54°35' W 009°18'2 2.8
2017-Oct-13 11:27N 54°36' W 009°16'2 3.6
2017-Oct-13 10:58N 54°36' W 009°13'4 8.2
2017-Oct-13 10:28N 54°37' W 009°06'10 4.8
2017-Oct-13 08:21N 54°42' W 008°51'4 9.2
2017-Oct-13 07:53N 54°46' W 008°48'8 4.3
2017-Oct-13 05:56N 54°52' W 008°38'2 4.0
2017-Oct-13 05:25N 54°54' W 008°38'11 6.1
2017-Oct-13 03:38N 55°05' W 008°32'1 6.0
2017-Oct-13 03:29N 55°05' W 008°31'6 6.1
2017-Oct-13 02:28N 55°10' W 008°24'4 6.4
2017-Oct-13 01:49N 55°12' W 008°18'4 6.8
2017-Oct-13 01:17N 55°14' W 008°12'7 7.2
2017-Oct-13 00:18N 55°16' W 008°01'2 7.1
2017-Oct-12 23:59N 55°17' W 007°57'5 7.4
2017-Oct-12 23:16N 55°19' W 007°48'3 7.2
2017-Oct-12 22:53N 55°20' W 007°44'3 7.6
2017-Oct-12 22:26N 55°21' W 007°38'6 7.3
2017-Oct-12 21:39N 55°23' W 007°29'1 7.1
2017-Oct-12 21:30N 55°24' W 007°27'5 7.3
2017-Oct-12 20:53N 55°25' W 007°19'4 8.9
2017-Oct-12 20:28N 55°24' W 007°13'810.2
2017-Oct-12 19:44N 55°23' W 006°60'311.3
2017-Oct-12 19:28N 55°22' W 006°55'5 9.5
2017-Oct-12 18:58N 55°21' W 006°46'511.3
2017-Oct-12 18:30N 55°20' W 006°37'510.9
2017-Oct-12 18:00N 55°19' W 006°28'1 2.1
2017-Oct-12 17:30N 55°18' W 006°28'2 3.5
2017-Oct-12 17:00N 55°17' W 006°31'3 6.4
2017-Oct-12 16:30N 55°16' W 006°36'611.8
2017-Oct-12 16:00N 55°18' W 006°46'611.4
2017-Oct-12 15:28N 55°20' W 006°56'2 2.9
2017-Oct-12 14:57N 55°19' W 006°54'2 3.5
2017-Oct-12 14:30N 55°18' W 006°52'2 4.6
2017-Oct-12 13:59N 55°19' W 006°55'3 6.5
2017-Oct-12 13:29N 55°22' W 006°55'5 9.8
2017-Oct-12 13:00N 55°26' W 006°50'5 9.4
2017-Oct-12 12:30N 55°30' W 006°45'5 9.2
2017-Oct-12 11:59N 55°34' W 006°41'1 2.0
2017-Oct-12 11:31N 55°35' W 006°41'2 3.7
2017-Oct-12 11:00N 55°34' W 006°44'3 6.1
2017-Oct-12 10:30N 55°33' W 006°49'510.6
2017-Oct-12 10:00N 55°31' W 006°58'3 5.1
2017-Oct-12 09:30N 55°31' W 007°03'2 4.0
2017-Oct-12 09:00N 55°32' W 007°05'5 7.2
2017-Oct-12 08:19N 55°32' W 007°14'4 9.5
2017-Oct-12 07:57N 55°31' W 007°20'2 4.0
2017-Oct-12 07:27N 55°30' W 007°23'2 4.0
2017-Oct-12 06:58N 55°30' W 007°27'1 2.4
2017-Oct-12 06:30N 55°30' W 007°25'2 3.7
2017-Oct-12 06:00N 55°30' W 007°28'1 1.4
2017-Oct-12 05:25N 55°30' W 007°29'1 2.1
2017-Oct-12 04:55N 55°30' W 007°28'1 1.1
2017-Oct-12 03:40N 55°29' W 007°30'3 8.1
2017-Oct-12 03:15N 55°28' W 007°35'2 7.7
2017-Oct-12 03:00N 55°27' W 007°38'3 5.1
2017-Oct-12 02:19N 55°25' W 007°43'2 5.1
2017-Oct-12 01:52N 55°24' W 007°46'3 5.2
2017-Oct-12 01:22N 55°22' W 007°50'3 5.4
2017-Oct-12 00:45N 55°20' W 007°55'2 5.7
2017-Oct-12 00:22N 55°19' W 007°58'3 5.5
2017-Oct-11 23:45N 55°17' W 008°03'1 5.3
2017-Oct-11 23:30N 55°16' W 008°05'3 6.1
2017-Oct-11 22:59N 55°15' W 008°09'3 6.3
2017-Oct-11 22:28N 55°13' W 008°15'3 6.0
2017-Oct-11 21:59N 55°12' W 008°19'4 6.1
2017-Oct-11 21:15N 55°11' W 008°27'2 6.0
2017-Oct-11 20:57N 55°10' W 008°30'4 6.0
2017-Oct-11 20:19N 55°09' W 008°36'2 5.8
2017-Oct-11 20:00N 55°09' W 008°39'3 5.7
2017-Oct-11 19:30N 55°08' W 008°44'3 5.9
2017-Oct-11 19:00N 55°07' W 008°49'7 4.4
2017-Oct-11 17:28N 55°06' W 009°00'37 2.1
2017-Oct-10 23:57N 55°12' W 007°56'0 0.0
2017-Oct-10 21:54N 55°12' W 007°56'0 0.0
2017-Oct-10 19:59N 55°12' W 007°56'0 0.0
2017-Oct-10 19:22N 55°12' W 007°56'0 0.0
2017-Oct-10 18:13N 55°12' W 007°56'0 1.9
2017-Oct-10 18:00N 55°12' W 007°55'1 2.1
2017-Oct-10 17:28N 55°13' W 007°56'2 4.3
2017-Oct-10 17:00N 55°15' W 007°57'4 7.5
2017-Oct-10 16:29N 55°17' W 007°51'6 8.6
2017-Oct-10 15:49N 55°18' W 007°41'3 1.8
2017-Oct-10 13:58N 55°20' W 007°37'6 9.4
2017-Oct-10 13:23N 55°25' W 007°41'4 9.5
2017-Oct-10 12:55N 55°29' W 007°44'3 6.1
2017-Oct-10 12:29N 55°31' W 007°46'0 0.6
2017-Oct-10 11:56N 55°31' W 007°45'3 5.4
2017-Oct-10 11:22N 55°29' W 007°48'410.9
2017-Oct-10 10:57N 55°26' W 007°54'511.0
2017-Oct-10 10:30N 55°23' W 008°01'4 8.4
2017-Oct-10 10:00N 55°21' W 008°07'2 3.9
2017-Oct-10 09:30N 55°21' W 008°11'2 3.7
2017-Oct-10 08:59N 55°22' W 008°13'3 6.7
2017-Oct-10 08:29N 55°25' W 008°16'5 9.8
2017-Oct-10 08:00N 55°30' W 008°18'5 9.9
2017-Oct-10 07:27N 55°35' W 008°20'4 3.4
2017-Oct-10 06:23N 55°38' W 008°17'3 2.9
2017-Oct-10 05:21N 55°40' W 008°13'0 0.8
2017-Oct-10 04:55N 55°40' W 008°12'1 1.1
2017-Oct-10 03:41N 55°41' W 008°10'0 1.9
2017-Oct-10 03:28N 55°41' W 008°10'1 2.2
2017-Oct-10 03:00N 55°42' W 008°08'2 3.2
2017-Oct-10 02:23N 55°43' W 008°06'2 3.0
2017-Oct-10 01:46N 55°44' W 008°03'1 3.1
2017-Oct-10 01:27N 55°44' W 008°01'1 3.1
2017-Oct-10 00:59N 55°45' W 007°59'2 3.1
2017-Oct-10 00:24N 55°46' W 007°57'1 2.6
2017-Oct-09 23:55N 55°47' W 007°55'1 2.6
2017-Oct-09 23:25N 55°48' W 007°53'2 2.9
2017-Oct-09 22:54N 55°49' W 007°51'2 3.1
2017-Oct-09 22:22N 55°50' W 007°49'1 2.9
2017-Oct-09 21:54N 55°51' W 007°47'2 3.0
2017-Oct-09 21:18N 55°52' W 007°44'1 3.4
2017-Oct-09 20:56N 55°52' W 007°42'1 3.4
2017-Oct-09 20:30N 55°53' W 007°40'21 3.6
2017-Oct-09 14:43N 55°54' W 007°03'2 3.9
2017-Oct-09 14:18N 55°52' W 007°04'3 4.6
2017-Oct-09 13:38N 55°49' W 007°06'11 6.9
2017-Oct-09 11:59N 55°39' W 007°14'610.7
2017-Oct-09 11:23N 55°39' W 007°25'3 6.6
2017-Oct-09 10:53N 55°39' W 007°31'2 3.8
2017-Oct-09 10:25N 55°39' W 007°34'3 6.5
2017-Oct-09 09:58N 55°41' W 007°38'511.0
2017-Oct-09 09:30N 55°46' W 007°41'6 4.0
2017-Oct-09 08:04N 55°47' W 007°51'210.1
2017-Oct-09 07:53N 55°49' W 007°51'410.1
2017-Oct-09 07:30N 55°53' W 007°51'7 2.4
2017-Oct-09 04:45N 55°58' W 007°43'1 4.6
2017-Oct-09 04:26N 55°56' W 007°42'5 4.7
2017-Oct-09 03:18N 55°52' W 007°36'2 4.8
2017-Oct-09 02:52N 55°50' W 007°35'3 6.3
2017-Oct-09 02:27N 55°48' W 007°33'  

Dump ship's entire track history